createdAt,value
2023-04-09T00:01:11.246Z,34.80
2023-04-09T00:03:39.516Z,34.90
2023-04-09T00:06:06.606Z,34.80
2023-04-09T00:08:33.791Z,34.80
2023-04-09T00:11:00.714Z,34.80
2023-04-09T00:13:38.427Z,34.80
2023-04-09T00:16:07.834Z,34.80
2023-04-09T00:18:35.108Z,34.80
2023-04-09T00:21:02.335Z,34.80
2023-04-09T00:23:29.249Z,34.90
2023-04-09T00:25:56.385Z,34.70
2023-04-09T00:28:23.455Z,34.80
2023-04-09T00:30:50.504Z,35.00
2023-04-09T00:33:17.412Z,34.90
2023-04-09T00:35:44.407Z,34.80
2023-04-09T00:38:11.612Z,34.80
2023-04-09T00:40:38.596Z,34.80
2023-04-09T00:43:05.690Z,34.80
2023-04-09T00:45:33.025Z,34.80
2023-04-09T00:48:00.199Z,34.90
2023-04-09T00:50:27.262Z,34.80
2023-04-09T00:52:54.575Z,34.90
2023-04-09T00:55:22.512Z,34.80
2023-04-09T00:57:49.541Z,34.90
2023-04-09T01:00:16.556Z,34.90
2023-04-09T01:02:44.567Z,34.90
2023-04-09T01:05:13.532Z,35.00
2023-04-09T01:08:12.601Z,35.00
2023-04-09T01:10:52.551Z,35.00
2023-04-09T01:13:52.876Z,35.00
2023-04-09T01:16:24.469Z,34.90
2023-04-09T01:19:02.350Z,34.90
2023-04-09T01:21:37.742Z,34.90
2023-04-09T01:24:43.025Z,34.90
2023-04-09T01:27:11.657Z,34.90
2023-04-09T01:29:51.879Z,34.90
2023-04-09T01:32:21.921Z,35.00
2023-04-09T01:34:49.680Z,34.90
2023-04-09T01:37:18.368Z,34.90
2023-04-09T01:39:46.436Z,34.90
2023-04-09T01:42:16.064Z,34.90
2023-04-09T01:44:45.404Z,34.90
2023-04-09T01:47:13.601Z,34.90
2023-04-09T01:49:43.940Z,34.80
2023-04-09T01:52:11.636Z,35.00
2023-04-09T01:54:38.749Z,35.80
2023-04-09T01:57:05.775Z,35.00
2023-04-09T01:59:32.742Z,35.00
2023-04-09T02:02:12.428Z,35.00
2023-04-09T02:04:45.665Z,35.10
2023-04-09T02:07:24.705Z,35.00
2023-04-09T02:09:54.642Z,35.00
2023-04-09T02:12:25.311Z,35.10
2023-04-09T02:14:56.021Z,35.00
2023-04-09T02:17:24.510Z,35.00
2023-04-09T02:19:53.431Z,35.00
2023-04-09T02:22:23.285Z,35.00
2023-04-09T02:24:50.521Z,35.10
2023-04-09T02:27:17.725Z,35.10
2023-04-09T02:29:44.676Z,35.10
2023-04-09T02:32:11.698Z,35.00
2023-04-09T02:34:38.629Z,35.00
2023-04-09T02:37:05.652Z,35.00
2023-04-09T02:39:32.630Z,35.00
2023-04-09T02:41:59.644Z,35.00
2023-04-09T02:44:26.557Z,35.00
2023-04-09T02:46:53.467Z,35.00
2023-04-09T02:49:20.559Z,35.00
2023-04-09T02:51:47.444Z,35.00
2023-04-09T02:54:14.454Z,35.00
2023-04-09T02:56:41.741Z,35.00
2023-04-09T02:59:08.675Z,35.00
2023-04-09T03:01:35.692Z,35.10
2023-04-09T03:04:02.792Z,35.10
2023-04-09T03:06:29.722Z,35.10
2023-04-09T03:08:56.663Z,35.10
2023-04-09T03:11:23.556Z,35.10
2023-04-09T03:13:50.600Z,35.00
2023-04-09T03:16:17.467Z,35.10
2023-04-09T03:18:44.485Z,37.60
2023-04-09T03:21:13.747Z,35.10
2023-04-09T03:23:42.047Z,35.10
2023-04-09T03:26:09.156Z,35.10
2023-04-09T03:28:36.194Z,35.10
2023-04-09T03:31:03.157Z,35.10
2023-04-09T03:33:30.219Z,35.10
2023-04-09T03:35:57.328Z,35.10
2023-04-09T03:38:24.264Z,35.10
2023-04-09T03:40:51.304Z,35.10
2023-04-09T03:43:18.375Z,35.20
2023-04-09T03:45:45.651Z,35.10
2023-04-09T03:48:12.523Z,35.10
2023-04-09T03:50:41.390Z,35.20
2023-04-09T03:53:08.649Z,35.10
2023-04-09T03:55:37.253Z,35.20
2023-04-09T03:58:04.143Z,36.00
2023-04-09T04:00:31.277Z,34.60
2023-04-09T04:02:58.470Z,35.10
2023-04-09T04:05:26.406Z,35.10
2023-04-09T04:07:54.117Z,35.10
2023-04-09T04:10:21.119Z,35.20
2023-04-09T04:12:48.150Z,35.20
2023-04-09T04:15:15.593Z,35.20
2023-04-09T04:17:42.620Z,35.20
2023-04-09T04:20:10.527Z,35.10
2023-04-09T04:22:37.507Z,35.10
2023-04-09T04:25:05.481Z,35.10
2023-04-09T04:27:32.371Z,35.90
2023-04-09T04:30:00.293Z,35.20
2023-04-09T04:32:27.522Z,35.20
2023-04-09T04:34:54.927Z,35.20
2023-04-09T04:37:22.008Z,35.20
2023-04-09T04:39:49.132Z,35.20
2023-04-09T04:42:16.739Z,35.20
2023-04-09T04:44:44.923Z,35.20
2023-04-09T04:47:11.872Z,35.20
2023-04-09T04:49:38.841Z,35.20
2023-04-09T04:52:07.515Z,35.20
2023-04-09T04:54:34.826Z,35.20
2023-04-09T04:57:01.973Z,35.20
2023-04-09T04:59:29.645Z,35.90
2023-04-09T05:01:56.634Z,35.30
2023-04-09T05:04:23.784Z,35.30
2023-04-09T05:06:51.290Z,35.30
2023-04-09T05:09:19.498Z,35.30
2023-04-09T05:11:48.397Z,35.30
2023-04-09T05:14:15.362Z,35.30
2023-04-09T05:16:42.591Z,35.30
2023-04-09T05:19:09.524Z,35.40
2023-04-09T05:21:36.423Z,35.30
2023-04-09T05:24:03.498Z,35.30
2023-04-09T05:26:30.546Z,35.30
2023-04-09T05:28:57.554Z,35.50
2023-04-09T05:31:24.729Z,35.30
2023-04-09T05:33:53.015Z,35.30
2023-04-09T05:36:20.471Z,35.30
2023-04-09T05:38:48.034Z,35.30
2023-04-09T05:41:16.121Z,35.40
2023-04-09T05:43:43.159Z,35.30
2023-04-09T05:46:10.309Z,35.30
2023-04-09T05:48:37.581Z,35.30
2023-04-09T05:51:04.632Z,35.40
2023-04-09T05:53:32.744Z,35.30
2023-04-09T05:55:59.649Z,35.40
2023-04-09T05:58:29.166Z,35.40
2023-04-09T06:00:56.195Z,35.40
2023-04-09T06:03:23.363Z,35.40
2023-04-09T06:05:50.536Z,35.40
2023-04-09T06:08:17.470Z,35.40
2023-04-09T06:10:44.541Z,35.40
2023-04-09T06:13:11.672Z,35.40
2023-04-09T06:15:39.565Z,35.40
2023-04-09T06:18:06.971Z,35.40
2023-04-09T06:20:34.032Z,35.50
2023-04-09T06:23:01.115Z,35.40
2023-04-09T06:25:28.208Z,35.40
2023-04-09T06:27:55.209Z,35.40
2023-04-09T06:30:23.029Z,35.50
2023-04-09T06:32:55.096Z,35.40
2023-04-09T06:35:22.872Z,35.40
2023-04-09T06:37:49.925Z,35.40
2023-04-09T06:40:17.110Z,35.40
2023-04-09T06:42:44.203Z,35.40
2023-04-09T06:45:11.934Z,35.40
2023-04-09T06:47:39.027Z,35.40
2023-04-09T06:50:06.732Z,35.40
2023-04-09T06:52:33.727Z,35.50
2023-04-09T06:55:00.941Z,35.50
2023-04-09T06:57:28.024Z,35.50
2023-04-09T06:59:54.981Z,35.30
2023-04-09T07:02:22.514Z,35.40
2023-04-09T07:04:49.756Z,35.40
2023-04-09T07:07:16.876Z,35.40
2023-04-09T07:09:44.744Z,35.50
2023-04-09T07:12:11.624Z,35.60
2023-04-09T07:14:38.677Z,35.60
2023-04-09T07:17:05.901Z,35.60
2023-04-09T07:19:32.825Z,35.70
2023-04-09T07:21:59.853Z,35.60
2023-04-09T07:24:26.808Z,35.70
2023-04-09T07:26:56.027Z,35.70
2023-04-09T07:29:23.034Z,35.70
2023-04-09T07:31:50.048Z,35.70
2023-04-09T07:34:17.064Z,35.70
2023-04-09T07:36:44.625Z,35.70
2023-04-09T07:39:11.691Z,35.70
2023-04-09T07:41:38.632Z,35.70
2023-04-09T07:44:06.568Z,35.70
2023-04-09T07:46:33.840Z,35.70
2023-04-09T07:49:00.842Z,35.70
2023-04-09T07:51:28.077Z,35.70
2023-04-09T07:53:55.246Z,35.80
2023-04-09T07:56:22.481Z,35.80
2023-04-09T07:58:50.932Z,35.90
2023-04-09T08:01:18.109Z,36.00
2023-04-09T08:03:47.974Z,36.10
2023-04-09T08:06:15.121Z,36.10
2023-04-09T08:08:43.245Z,36.10
2023-04-09T08:11:10.483Z,36.10
2023-04-09T08:13:37.498Z,36.10
2023-04-09T08:16:05.054Z,36.20
2023-04-09T08:18:32.180Z,36.20
2023-04-09T08:20:59.346Z,36.20
2023-04-09T08:23:26.433Z,36.20
2023-04-09T08:25:53.445Z,36.20
2023-04-09T08:28:20.469Z,36.20
2023-04-09T08:30:48.490Z,36.20
2023-04-09T08:33:15.418Z,36.20
2023-04-09T08:35:42.657Z,36.20
2023-04-09T08:38:09.836Z,36.30
2023-04-09T08:40:37.624Z,36.30
2023-04-09T08:43:09.000Z,36.30
2023-04-09T08:45:36.560Z,36.30
2023-04-09T08:48:05.226Z,36.30
2023-04-09T08:50:36.085Z,36.30
2023-04-09T08:53:06.279Z,36.30
2023-04-09T08:55:37.404Z,36.60
2023-04-09T08:58:07.800Z,36.60
2023-04-09T09:00:34.876Z,36.40
2023-04-09T09:03:07.133Z,37.20
2023-04-09T09:05:45.938Z,36.30
2023-04-09T09:08:24.427Z,36.30
2023-04-09T09:10:51.942Z,36.10
2023-04-09T09:13:20.172Z,36.10
2023-04-09T09:15:49.929Z,36.10
2023-04-09T09:18:19.376Z,36.10
2023-04-09T09:20:46.406Z,36.10
2023-04-09T09:23:13.828Z,36.10
2023-04-09T09:25:44.101Z,36.10
2023-04-09T09:28:13.033Z,36.10
2023-04-09T09:30:41.018Z,36.10
2023-04-09T09:33:10.942Z,36.00
2023-04-09T09:35:57.813Z,36.10
2023-04-09T09:38:25.033Z,36.00
2023-04-09T09:40:52.654Z,36.00
2023-04-09T09:43:19.798Z,36.00
2023-04-09T09:45:49.976Z,36.00
2023-04-09T09:48:17.004Z,35.90
2023-04-09T09:50:48.108Z,36.00
2023-04-09T09:53:22.973Z,36.00
2023-04-09T09:55:56.329Z,36.20
2023-04-09T09:58:31.012Z,36.10
2023-04-09T10:00:58.800Z,36.00
2023-04-09T10:03:30.250Z,36.00
2023-04-09T10:06:01.639Z,35.90
2023-04-09T10:08:30.532Z,35.90
2023-04-09T10:10:58.066Z,36.00
2023-04-09T10:13:45.206Z,35.90
2023-04-09T10:16:13.215Z,35.80
2023-04-09T10:18:42.221Z,35.90
2023-04-09T10:21:28.480Z,35.80
2023-04-09T10:23:57.087Z,35.80
2023-04-09T10:26:31.007Z,35.90
2023-04-09T10:29:14.704Z,35.90
2023-04-09T10:32:06.467Z,35.80
2023-04-09T10:34:43.535Z,35.90
2023-04-09T10:37:20.511Z,36.20
2023-04-09T10:39:49.940Z,36.30
2023-04-09T10:42:22.214Z,36.50
2023-04-09T10:45:14.224Z,36.40
2023-04-09T10:47:43.908Z,36.00
2023-04-09T10:50:21.625Z,36.50
2023-04-09T10:53:00.352Z,36.30
2023-04-09T10:55:41.736Z,36.40
2023-04-09T10:58:13.632Z,35.70
2023-04-09T11:00:44.177Z,36.30
2023-04-09T11:03:21.825Z,36.30
2023-04-09T11:06:02.375Z,36.00
2023-04-09T11:08:32.071Z,36.20
2023-04-09T11:11:01.576Z,36.30
2023-04-09T11:13:32.028Z,36.20
2023-04-09T11:16:01.476Z,36.20
2023-04-09T11:18:30.771Z,36.00
2023-04-09T11:21:00.451Z,35.70
2023-04-09T11:23:28.866Z,35.70
2023-04-09T11:25:56.421Z,35.70
2023-04-09T11:28:24.947Z,35.70
2023-04-09T11:30:53.359Z,35.70
2023-04-09T11:33:20.986Z,35.60
2023-04-09T11:35:48.600Z,35.30
2023-04-09T11:38:15.980Z,35.10
2023-04-09T11:40:48.856Z,34.90
2023-04-09T11:43:17.144Z,34.90
2023-04-09T11:45:44.877Z,35.00
2023-04-09T11:48:13.128Z,35.00
2023-04-09T11:50:40.703Z,34.90
2023-04-09T11:53:24.575Z,34.70
2023-04-09T11:55:53.662Z,34.00
2023-04-09T11:58:26.443Z,34.20
2023-04-09T12:00:58.894Z,33.80
2023-04-09T12:03:31.320Z,33.90
2023-04-09T12:06:03.160Z,33.80
2023-04-09T12:08:31.464Z,34.00
2023-04-09T12:11:15.741Z,34.00
2023-04-09T12:13:45.217Z,33.40
2023-04-09T12:16:13.865Z,34.30
2023-04-09T12:18:42.060Z,33.50
2023-04-09T12:21:09.593Z,33.40
2023-04-09T12:23:37.487Z,33.30
2023-04-09T12:26:04.687Z,33.30
2023-04-09T12:28:32.662Z,33.60
2023-04-09T12:31:00.336Z,33.80
2023-04-09T12:33:29.729Z,34.00
2023-04-09T12:35:58.606Z,34.00
2023-04-09T12:38:26.778Z,33.90
2023-04-09T12:40:53.852Z,34.10
2023-04-09T12:43:21.753Z,33.30
2023-04-09T12:45:49.031Z,33.00
2023-04-09T12:48:16.508Z,32.90
2023-04-09T12:50:44.028Z,32.80
2023-04-09T12:53:11.965Z,32.60
2023-04-09T12:55:41.553Z,32.60
2023-04-09T12:58:10.030Z,32.50
2023-04-09T13:00:37.333Z,32.50
2023-04-09T13:03:04.931Z,32.40
2023-04-09T13:05:35.752Z,32.40
2023-04-09T13:08:03.689Z,32.50
2023-04-09T13:10:32.199Z,32.50
2023-04-09T13:12:59.314Z,32.60
2023-04-09T13:15:27.361Z,32.40
2023-04-09T13:17:54.772Z,32.40
2023-04-09T13:20:21.681Z,32.50
2023-04-09T13:22:49.460Z,32.50
2023-04-09T13:25:16.640Z,32.70
2023-04-09T13:27:44.054Z,32.90
2023-04-09T13:30:11.584Z,33.10
2023-04-09T13:32:38.808Z,33.30
2023-04-09T13:35:07.470Z,33.20
2023-04-09T13:37:34.439Z,33.00
2023-04-09T13:40:01.435Z,32.70
2023-04-09T13:42:29.143Z,32.60
2023-04-09T13:44:56.661Z,32.60
2023-04-09T13:47:26.540Z,32.70
2023-04-09T13:49:53.888Z,32.80
2023-04-09T13:52:21.071Z,32.80
2023-04-09T13:54:49.172Z,32.80
2023-04-09T13:57:17.032Z,32.50
2023-04-09T13:59:44.716Z,32.30
2023-04-09T14:02:12.241Z,32.10
2023-04-09T14:04:39.685Z,31.90
2023-04-09T14:07:07.308Z,31.80
2023-04-09T14:09:34.264Z,31.70
2023-04-09T14:12:01.950Z,31.70
2023-04-09T14:14:29.749Z,31.70
2023-04-09T14:16:59.585Z,31.70
2023-04-09T14:19:26.702Z,31.60
2023-04-09T14:21:55.673Z,32.20
2023-04-09T14:24:23.255Z,31.40
2023-04-09T14:26:53.465Z,31.40
2023-04-09T14:29:22.196Z,31.40
2023-04-09T14:31:49.413Z,31.30
2023-04-09T14:34:17.171Z,31.30
2023-04-09T14:36:44.483Z,31.20
2023-04-09T14:39:11.850Z,31.10
2023-04-09T14:41:38.900Z,31.00
2023-04-09T14:44:06.699Z,30.90
2023-04-09T14:46:33.740Z,30.90
2023-04-09T14:49:01.311Z,30.80
2023-04-09T14:51:32.939Z,30.80
2023-04-09T14:54:01.642Z,30.80
2023-04-09T14:56:29.411Z,30.90
2023-04-09T14:58:56.401Z,30.90
2023-04-09T15:01:23.319Z,31.00
2023-04-09T15:03:50.753Z,31.10
2023-04-09T15:06:18.141Z,31.10
2023-04-09T15:08:45.861Z,31.30
2023-04-09T15:11:22.827Z,31.20
2023-04-09T15:13:51.268Z,31.10
2023-04-09T15:16:24.000Z,31.10
2023-04-09T15:18:52.406Z,31.10
2023-04-09T15:21:19.810Z,31.50
2023-04-09T15:23:46.878Z,31.20
2023-04-09T15:26:14.126Z,31.20
2023-04-09T15:28:41.240Z,31.40
2023-04-09T15:31:08.721Z,32.00
2023-04-09T15:33:35.714Z,31.50
2023-04-09T15:36:03.170Z,31.50
2023-04-09T15:38:30.390Z,31.50
2023-04-09T15:40:57.630Z,31.40
2023-04-09T15:43:25.026Z,31.40
2023-04-09T15:45:51.959Z,31.50
2023-04-09T15:48:19.494Z,31.50
2023-04-09T15:50:46.832Z,32.50
2023-04-09T15:53:15.772Z,31.70
2023-04-09T15:55:42.842Z,31.70
2023-04-09T15:58:09.823Z,31.70
2023-04-09T16:00:36.821Z,31.80
2023-04-09T16:03:04.363Z,31.70
2023-04-09T16:05:31.362Z,31.70
2023-04-09T16:07:59.938Z,31.70
2023-04-09T16:10:27.018Z,31.70
2023-04-09T16:12:53.933Z,31.70
2023-04-09T16:15:21.242Z,31.60
2023-04-09T16:17:48.311Z,31.70
2023-04-09T16:20:15.477Z,31.90
2023-04-09T16:22:43.078Z,31.50
2023-04-09T16:25:12.707Z,31.50
2023-04-09T16:27:42.697Z,31.50
2023-04-09T16:30:10.415Z,31.60
2023-04-09T16:32:37.855Z,31.70
2023-04-09T16:35:06.100Z,31.50
2023-04-09T16:37:35.212Z,31.50
2023-04-09T16:40:02.563Z,31.50
2023-04-09T16:42:30.423Z,31.30
2023-04-09T16:44:57.487Z,31.30
2023-04-09T16:47:24.653Z,31.30
2023-04-09T16:49:57.109Z,31.30
2023-04-09T16:52:24.428Z,31.30
2023-04-09T16:54:51.531Z,31.30
2023-04-09T16:57:18.504Z,31.30
2023-04-09T16:59:45.582Z,31.40
2023-04-09T17:02:12.883Z,31.40
2023-04-09T17:04:39.972Z,31.30
2023-04-09T17:07:07.602Z,31.30
2023-04-09T17:09:34.871Z,31.40
2023-04-09T17:12:02.568Z,31.40
2023-04-09T17:14:29.707Z,31.60
2023-04-09T17:16:57.026Z,31.40
2023-04-09T17:19:24.021Z,31.40
2023-04-09T17:21:51.276Z,31.40
2023-04-09T17:24:18.227Z,31.40
2023-04-09T17:26:45.188Z,32.10
2023-04-09T17:29:12.472Z,31.50
2023-04-09T17:31:39.646Z,31.50
2023-04-09T17:34:08.533Z,31.50
2023-04-09T17:36:35.565Z,31.50
2023-04-09T17:39:03.062Z,31.50
2023-04-09T17:41:30.353Z,31.50
2023-04-09T17:43:57.229Z,31.50
2023-04-09T17:46:24.700Z,31.60
2023-04-09T17:48:53.030Z,31.60
2023-04-09T17:51:20.320Z,31.60
2023-04-09T17:53:47.523Z,31.60
2023-04-09T17:56:17.082Z,31.60
2023-04-09T17:58:47.888Z,31.70
2023-04-09T18:01:14.992Z,31.80
2023-04-09T18:03:42.910Z,31.70
2023-04-09T18:06:10.378Z,31.70
2023-04-09T18:08:37.577Z,31.80
2023-04-09T18:11:11.839Z,31.70
2023-04-09T18:13:40.303Z,31.80
2023-04-09T18:16:12.327Z,32.40
2023-04-09T18:18:39.958Z,31.90
2023-04-09T18:21:07.046Z,31.80
2023-04-09T18:23:36.750Z,31.90
2023-04-09T18:26:03.879Z,31.90
2023-04-09T18:28:30.819Z,31.90
2023-04-09T18:30:58.089Z,31.90
2023-04-09T18:33:26.652Z,32.00
2023-04-09T18:35:53.681Z,32.00
2023-04-09T18:38:21.211Z,32.00
2023-04-09T18:40:48.322Z,32.00
2023-04-09T18:43:15.489Z,32.10
2023-04-09T18:45:42.536Z,32.10
2023-04-09T18:48:09.456Z,32.20
2023-04-09T18:50:36.430Z,32.80
2023-04-09T18:53:03.870Z,32.20
2023-04-09T18:55:31.091Z,32.20
2023-04-09T18:57:58.596Z,32.20
2023-04-09T19:00:25.755Z,32.30
2023-04-09T19:02:53.067Z,32.10
2023-04-09T19:05:20.426Z,32.20
2023-04-09T19:07:47.600Z,32.30
2023-04-09T19:10:14.522Z,32.30
2023-04-09T19:12:48.382Z,32.30
2023-04-09T19:15:16.142Z,32.30
2023-04-09T19:17:43.204Z,32.40
2023-04-09T19:20:10.976Z,32.40
2023-04-09T19:22:38.110Z,32.40
2023-04-09T19:25:07.620Z,32.70
2023-04-09T19:27:34.542Z,32.50
2023-04-09T19:30:04.627Z,32.40
2023-04-09T19:32:31.687Z,32.50
2023-04-09T19:34:58.606Z,32.50
2023-04-09T19:37:27.984Z,32.50
2023-04-09T19:39:57.034Z,32.70
2023-04-09T19:42:25.193Z,32.60
2023-04-09T19:44:52.275Z,32.90
2023-04-09T19:47:19.432Z,32.60
2023-04-09T19:49:46.775Z,32.70
2023-04-09T19:52:13.784Z,32.70
2023-04-09T19:54:40.802Z,32.60
2023-04-09T19:57:08.066Z,32.70
2023-04-09T19:59:37.423Z,32.70
2023-04-09T20:02:04.547Z,32.70
2023-04-09T20:04:31.623Z,32.70
2023-04-09T20:06:58.671Z,32.80
2023-04-09T20:09:27.667Z,32.70
2023-04-09T20:11:55.170Z,32.90
2023-04-09T20:14:22.615Z,32.80
2023-04-09T20:16:49.677Z,32.80
2023-04-09T20:19:16.735Z,32.90
2023-04-09T20:21:43.794Z,32.80
2023-04-09T20:24:10.673Z,32.80
2023-04-09T20:26:37.681Z,32.80
2023-04-09T20:29:05.312Z,32.90
2023-04-09T20:31:34.988Z,32.90
2023-04-09T20:34:02.882Z,32.90
2023-04-09T20:36:30.051Z,33.00
2023-04-09T20:38:59.578Z,33.00
2023-04-09T20:41:26.867Z,33.10
2023-04-09T20:43:53.894Z,33.10
2023-04-09T20:46:21.485Z,33.00
2023-04-09T20:48:48.566Z,33.00
2023-04-09T20:51:15.853Z,33.10
2023-04-09T20:53:42.921Z,33.10
2023-04-09T20:56:10.209Z,33.10
2023-04-09T20:58:37.293Z,33.20
2023-04-09T21:01:06.612Z,33.10
2023-04-09T21:03:35.838Z,33.20
2023-04-09T21:06:03.373Z,33.10
2023-04-09T21:08:30.740Z,33.80
2023-04-09T21:10:58.404Z,33.20
2023-04-09T21:13:27.347Z,33.20
2023-04-09T21:15:54.535Z,33.30
2023-04-09T21:18:21.848Z,33.30
2023-04-09T21:20:49.890Z,33.30
2023-04-09T21:23:16.901Z,33.30
2023-04-09T21:25:43.857Z,33.30
2023-04-09T21:28:11.629Z,33.30
2023-04-09T21:30:38.737Z,33.30
2023-04-09T21:33:09.459Z,33.30
2023-04-09T21:35:36.776Z,33.40
2023-04-09T21:38:04.037Z,33.30
2023-04-09T21:40:31.690Z,33.40
2023-04-09T21:42:58.838Z,33.40
2023-04-09T21:45:25.974Z,33.40
2023-04-09T21:47:53.064Z,33.50
2023-04-09T21:50:20.232Z,33.50
2023-04-09T21:52:47.342Z,33.50
2023-04-09T21:55:14.333Z,33.40
2023-04-09T21:57:41.413Z,33.40
2023-04-09T22:00:10.940Z,33.40
2023-04-09T22:02:39.275Z,33.40
2023-04-09T22:05:06.780Z,33.50
2023-04-09T22:07:33.964Z,33.50
2023-04-09T22:10:00.850Z,33.50
2023-04-09T22:12:29.024Z,33.60
2023-04-09T22:14:56.258Z,33.50
2023-04-09T22:17:23.285Z,33.60
2023-04-09T22:19:51.051Z,33.60
2023-04-09T22:22:18.111Z,33.60
2023-04-09T22:24:45.037Z,33.70
2023-04-09T22:27:12.971Z,33.50
2023-04-09T22:29:39.981Z,33.60
2023-04-09T22:32:07.381Z,33.60
2023-04-09T22:34:34.321Z,33.60
2023-04-09T22:37:02.084Z,33.60
2023-04-09T22:39:29.316Z,33.70
2023-04-09T22:41:56.309Z,33.60
2023-04-09T22:44:23.310Z,33.60
2023-04-09T22:46:50.697Z,33.70
2023-04-09T22:49:17.683Z,33.70
2023-04-09T22:51:44.628Z,33.70
2023-04-09T22:54:11.714Z,33.70
2023-04-09T22:56:39.782Z,33.80
2023-04-09T22:59:06.739Z,33.70
2023-04-09T23:01:33.734Z,33.70
2023-04-09T23:04:01.604Z,33.70
2023-04-09T23:06:28.973Z,33.90
2023-04-09T23:08:56.090Z,33.70
2023-04-09T23:11:23.338Z,33.80
2023-04-09T23:13:50.444Z,34.00
2023-04-09T23:16:17.524Z,33.80
2023-04-09T23:18:45.436Z,33.90
2023-04-09T23:21:12.598Z,33.80
2023-04-09T23:23:40.042Z,33.90
2023-04-09T23:26:07.589Z,33.80
2023-04-09T23:28:34.558Z,33.80
2023-04-09T23:31:01.622Z,33.80
2023-04-09T23:33:28.567Z,33.90
2023-04-09T23:35:55.625Z,33.90
2023-04-09T23:38:22.602Z,33.90
2023-04-09T23:40:49.819Z,33.90
2023-04-09T23:43:16.743Z,33.90
2023-04-09T23:45:44.503Z,33.90
2023-04-09T23:48:12.735Z,33.90
2023-04-09T23:50:41.481Z,33.90
2023-04-09T23:53:09.124Z,33.90
2023-04-09T23:55:41.076Z,33.90
2023-04-09T23:58:09.542Z,33.90
